createdAt,value
2018-07-23T00:01:36.535Z,22.44
2018-07-23T00:04:06.612Z,22.42
2018-07-23T00:06:35.127Z,22.40
2018-07-23T00:09:04.135Z,22.38
2018-07-23T00:11:32.899Z,22.35
2018-07-23T00:16:40.812Z,22.28
2018-07-23T00:19:14.906Z,22.24
2018-07-23T00:21:43.510Z,22.21
2018-07-23T00:24:12.159Z,22.17
2018-07-23T00:26:40.918Z,22.15
2018-07-23T00:29:09.688Z,22.12
2018-07-23T00:31:45.975Z,22.10
2018-07-23T00:34:14.512Z,22.09
2018-07-23T00:36:48.017Z,22.07
2018-07-23T00:41:55.904Z,22.07
2018-07-23T00:44:24.516Z,22.06
2018-07-23T00:46:53.457Z,22.04
2018-07-23T00:49:22.053Z,22.04
2018-07-23T00:51:50.578Z,22.02
2018-07-23T00:54:19.450Z,22.00
2018-07-23T00:56:53.214Z,21.99
2018-07-23T00:59:21.716Z,21.96
2018-07-23T01:01:50.320Z,21.95
2018-07-23T01:04:18.931Z,21.94
2018-07-23T01:06:47.802Z,21.94
2018-07-23T01:09:16.302Z,21.93
2018-07-23T01:11:44.797Z,21.92
2018-07-23T01:14:13.344Z,21.91
2018-07-23T01:16:46.915Z,21.89
2018-07-23T01:19:15.476Z,21.87
2018-07-23T01:21:44.087Z,21.86
2018-07-23T01:24:16.416Z,21.84
2018-07-23T01:26:44.955Z,21.82
2018-07-23T01:29:17.247Z,21.81
2018-07-23T01:31:45.780Z,21.81
2018-07-23T01:34:16.328Z,21.80
2018-07-23T01:36:44.857Z,21.78
2018-07-23T01:39:13.410Z,21.76
2018-07-23T01:41:42.176Z,21.73
2018-07-23T01:44:14.827Z,21.72
2018-07-23T01:46:43.326Z,21.70
2018-07-23T01:49:11.827Z,21.67
2018-07-23T01:51:46.904Z,21.67
2018-07-23T01:54:15.447Z,21.64
2018-07-23T01:56:44.019Z,21.62
2018-07-23T01:59:12.893Z,21.62
2018-07-23T02:01:41.411Z,21.62
2018-07-23T02:04:09.884Z,21.61
2018-07-23T02:06:38.380Z,21.60
2018-07-23T02:09:09.175Z,21.57
2018-07-23T02:11:37.754Z,21.59
2018-07-23T02:14:06.371Z,21.59
2018-07-23T02:16:50.330Z,21.57
2018-07-23T02:19:18.883Z,21.55
2018-07-23T02:21:50.853Z,21.54
2018-07-23T02:24:19.736Z,21.51
2018-07-23T02:26:48.234Z,21.49
2018-07-23T02:29:18.219Z,21.49
2018-07-23T02:31:46.703Z,21.48
2018-07-23T02:34:20.151Z,21.47
2018-07-23T02:36:48.760Z,21.45
2018-07-23T02:39:17.584Z,21.43
2018-07-23T02:41:46.151Z,21.41
2018-07-23T02:46:49.709Z,21.40
2018-07-23T02:49:19.575Z,21.38
2018-07-23T02:51:48.128Z,21.37
2018-07-23T02:54:16.679Z,21.37
2018-07-23T02:56:45.550Z,21.36
2018-07-23T02:59:14.162Z,21.34
2018-07-23T03:01:42.664Z,21.34
2018-07-23T03:04:11.843Z,21.34
2018-07-23T03:06:40.396Z,21.30
2018-07-23T03:09:20.097Z,21.27
2018-07-23T03:11:48.992Z,21.27
2018-07-23T03:14:18.049Z,21.24
2018-07-23T03:16:46.589Z,21.21
2018-07-23T03:19:15.676Z,21.20
2018-07-23T03:21:44.290Z,21.22
2018-07-23T03:24:12.694Z,21.23
2018-07-23T03:26:41.461Z,21.19
2018-07-23T03:29:09.956Z,21.17
2018-07-23T03:31:38.675Z,21.19
2018-07-23T03:34:07.273Z,21.18
2018-07-23T03:36:37.924Z,21.16
2018-07-23T03:39:08.624Z,21.16
2018-07-23T03:41:37.152Z,21.15
2018-07-23T03:44:06.113Z,21.15
2018-07-23T03:46:40.927Z,21.15
2018-07-23T03:49:09.517Z,21.13
2018-07-23T03:51:38.006Z,21.13
2018-07-23T03:54:07.039Z,21.12
2018-07-23T03:56:37.373Z,21.11
2018-07-23T03:59:06.072Z,21.12
2018-07-23T04:01:34.602Z,21.12
2018-07-23T04:04:04.171Z,21.12
2018-07-23T04:06:32.712Z,21.11
2018-07-23T04:09:02.985Z,21.10
2018-07-23T04:11:31.551Z,21.11
2018-07-23T04:14:00.432Z,21.11
2018-07-23T04:16:29.351Z,21.10
2018-07-23T04:18:57.884Z,21.09
2018-07-23T04:21:26.481Z,21.11
2018-07-23T04:23:55.582Z,21.13
2018-07-23T04:26:24.205Z,21.16
2018-07-23T04:28:52.741Z,21.17
2018-07-23T04:31:21.350Z,21.18
2018-07-23T04:33:50.275Z,21.16
2018-07-23T04:36:19.486Z,21.18
2018-07-23T04:38:48.033Z,21.20
2018-07-23T04:41:18.123Z,21.23
2018-07-23T04:43:46.662Z,21.25
2018-07-23T04:46:18.720Z,21.28
2018-07-23T04:48:47.543Z,21.31
2018-07-23T04:51:16.109Z,21.35
2018-07-23T04:53:44.644Z,21.38
2018-07-23T04:56:19.174Z,21.41
2018-07-23T04:58:47.695Z,21.44
2018-07-23T05:01:16.227Z,21.46
2018-07-23T05:03:44.759Z,21.55
2018-07-23T05:06:17.097Z,21.63
2018-07-23T05:08:45.783Z,21.69
2018-07-23T05:11:14.369Z,21.75
2018-07-23T05:13:43.050Z,21.79
2018-07-23T05:16:11.636Z,21.84
2018-07-23T05:18:40.291Z,21.90
2018-07-23T05:21:08.821Z,21.96
2018-07-23T05:23:37.353Z,22.04
2018-07-23T05:26:07.589Z,22.11
2018-07-23T05:28:36.160Z,22.17
2018-07-23T05:31:05.156Z,22.21
2018-07-23T05:33:36.158Z,22.25
2018-07-23T05:36:05.426Z,22.28
2018-07-23T05:38:33.991Z,22.31
2018-07-23T05:41:02.696Z,22.32
2018-07-23T05:43:31.544Z,22.35
2018-07-23T05:46:06.103Z,22.34
2018-07-23T05:48:34.923Z,22.36
2018-07-23T05:51:03.526Z,22.37
2018-07-23T05:53:32.365Z,22.39
2018-07-23T05:56:04.059Z,22.47
2018-07-23T05:58:33.296Z,22.59
2018-07-23T06:01:02.211Z,22.70
2018-07-23T06:03:31.160Z,22.79
2018-07-23T06:06:00.032Z,22.84
2018-07-23T06:08:29.018Z,22.91
2018-07-23T06:10:57.629Z,23.04
2018-07-23T06:16:03.045Z,23.15
2018-07-23T06:18:32.339Z,23.18
2018-07-23T06:21:04.152Z,23.17
2018-07-23T06:23:32.918Z,23.22
2018-07-23T06:26:04.227Z,23.29
2018-07-23T06:28:33.780Z,23.33
2018-07-23T06:31:02.484Z,23.44
2018-07-23T06:33:31.925Z,23.50
2018-07-23T06:36:01.284Z,23.55
2018-07-23T06:38:34.063Z,23.62
2018-07-23T06:41:02.947Z,23.66
2018-07-23T06:43:31.708Z,23.74
2018-07-23T06:46:00.349Z,23.71
2018-07-23T06:48:29.491Z,23.71
2018-07-23T06:50:58.161Z,23.72
2018-07-23T06:53:26.931Z,23.72
2018-07-23T06:55:56.367Z,23.75
2018-07-23T07:01:05.353Z,23.99
2018-07-23T07:03:33.919Z,24.06
2018-07-23T07:06:03.415Z,24.11
2018-07-23T07:11:16.433Z,24.26
2018-07-23T07:13:49.417Z,24.44
2018-07-23T07:16:18.193Z,24.61
2018-07-23T07:18:50.667Z,24.73
2018-07-23T07:21:19.527Z,24.85
2018-07-23T07:23:48.160Z,24.94
2018-07-23T07:26:17.112Z,24.98
2018-07-23T07:28:45.947Z,25.03
2018-07-23T07:31:14.518Z,25.10
2018-07-23T07:33:49.196Z,25.15
2018-07-23T07:36:17.973Z,25.18
2018-07-23T07:38:46.583Z,25.25
2018-07-23T07:41:15.402Z,25.34
2018-07-23T07:43:44.420Z,25.43
2018-07-23T07:46:14.348Z,25.50
2018-07-23T07:48:45.250Z,25.57
2018-07-23T07:51:13.803Z,25.66
2018-07-23T07:53:42.365Z,25.69
2018-07-23T07:56:11.253Z,25.69
2018-07-23T07:58:39.938Z,25.78
2018-07-23T08:01:08.674Z,25.86
2018-07-23T08:03:38.283Z,25.96
2018-07-23T08:06:06.927Z,26.10
2018-07-23T08:08:35.480Z,26.10
2018-07-23T08:11:04.395Z,26.25
2018-07-23T08:13:33.052Z,26.26
2018-07-23T08:16:03.362Z,26.31
2018-07-23T08:18:32.555Z,26.40
2018-07-23T08:21:06.804Z,26.52
2018-07-23T08:23:35.626Z,26.40
2018-07-23T08:26:05.338Z,26.33
2018-07-23T08:28:34.008Z,26.34
2018-07-23T08:31:06.506Z,26.50
2018-07-23T08:33:35.416Z,26.52
2018-07-23T08:36:07.448Z,26.57
2018-07-23T08:38:36.270Z,26.60
2018-07-23T08:41:05.222Z,26.62
2018-07-23T08:43:33.985Z,26.63
2018-07-23T08:46:04.615Z,26.65
2018-07-23T08:48:33.688Z,26.61
2018-07-23T08:51:02.757Z,26.68
2018-07-23T08:53:31.774Z,26.70
2018-07-23T08:56:00.723Z,26.58
2018-07-23T08:58:29.301Z,26.59
2018-07-23T09:00:57.933Z,26.59
2018-07-23T09:03:26.864Z,26.66
2018-07-23T09:05:55.508Z,26.75
2018-07-23T09:08:24.203Z,26.77
2018-07-23T09:10:54.110Z,26.78
2018-07-23T09:13:22.828Z,26.77
2018-07-23T09:15:51.724Z,26.85
2018-07-23T09:18:21.618Z,26.87
2018-07-23T09:20:54.328Z,26.95
2018-07-23T09:23:23.484Z,27.02
2018-07-23T09:25:57.848Z,27.07
2018-07-23T09:28:26.763Z,27.15
2018-07-23T09:31:02.704Z,27.19
2018-07-23T09:33:31.261Z,27.04
2018-07-23T09:36:01.078Z,27.17
2018-07-23T09:38:30.126Z,27.25
2018-07-23T09:40:58.693Z,27.27
2018-07-23T09:43:27.334Z,27.32
2018-07-23T09:46:04.407Z,27.44
2018-07-23T09:48:33.102Z,27.55
2018-07-23T09:51:01.798Z,27.69
2018-07-23T09:53:30.319Z,27.87
2018-07-23T09:55:58.888Z,28.05
2018-07-23T09:58:27.768Z,28.22
2018-07-23T10:00:58.367Z,28.35
2018-07-23T10:03:26.992Z,28.53
2018-07-23T10:05:55.916Z,28.67
2018-07-23T10:08:24.508Z,28.83
2018-07-23T10:10:53.094Z,29.01
2018-07-23T10:13:25.060Z,29.06
2018-07-23T10:15:54.487Z,28.95
2018-07-23T10:18:23.132Z,29.02
2018-07-23T10:20:52.195Z,28.95
2018-07-23T10:23:24.852Z,28.89
2018-07-23T10:25:53.676Z,29.01
2018-07-23T10:28:22.256Z,29.06
2018-07-23T10:30:50.905Z,29.21
2018-07-23T10:33:21.702Z,29.26
2018-07-23T10:35:50.496Z,29.16
2018-07-23T10:38:19.156Z,29.36
2018-07-23T10:40:48.147Z,29.51
2018-07-23T10:43:16.955Z,29.67
2018-07-23T10:45:46.189Z,29.90
2018-07-23T10:48:15.106Z,30.23
2018-07-23T10:50:43.815Z,30.43
2018-07-23T10:53:12.856Z,30.73
2018-07-23T10:55:43.095Z,30.64
2018-07-23T10:58:11.821Z,30.75
2018-07-23T11:00:47.271Z,30.97
2018-07-23T11:03:16.256Z,31.24
2018-07-23T11:05:44.968Z,31.42
2018-07-23T11:08:14.019Z,31.60
2018-07-23T11:10:42.939Z,31.56
2018-07-23T11:13:12.050Z,31.78
2018-07-23T11:15:40.706Z,32.01
2018-07-23T11:18:09.724Z,32.07
2018-07-23T11:20:38.340Z,32.18
2018-07-23T11:23:07.044Z,32.57
2018-07-23T11:25:40.377Z,32.82
2018-07-23T11:28:07.262Z,33.01
2018-07-23T11:30:35.785Z,33.10
2018-07-23T11:33:09.695Z,33.22
2018-07-23T11:35:38.326Z,33.35
2018-07-23T11:38:07.106Z,33.47
2018-07-23T11:40:36.019Z,33.93
2018-07-23T11:43:04.578Z,33.96
2018-07-23T11:45:40.128Z,34.08
2018-07-23T11:48:09.628Z,34.03
2018-07-23T11:50:38.186Z,34.19
2018-07-23T11:53:07.496Z,33.83
2018-07-23T11:55:42.463Z,33.21
2018-07-23T11:58:11.017Z,33.38
2018-07-23T12:00:39.633Z,33.67
2018-07-23T12:03:09.062Z,33.94
2018-07-23T12:05:42.433Z,34.04
2018-07-23T12:08:11.978Z,34.28
2018-07-23T12:10:49.478Z,34.53
2018-07-23T12:13:18.451Z,34.35
2018-07-23T12:15:47.944Z,34.29
2018-07-23T12:18:18.380Z,34.52
2018-07-23T12:20:48.757Z,34.72
2018-07-23T12:23:18.908Z,34.71
2018-07-23T12:25:47.511Z,34.81
2018-07-23T12:28:17.431Z,35.31
2018-07-23T12:30:46.623Z,35.48
2018-07-23T12:33:15.412Z,35.62
2018-07-23T12:35:47.279Z,36.09
2018-07-23T12:38:16.809Z,36.39
2018-07-23T12:40:45.761Z,35.91
2018-07-23T12:43:15.303Z,36.30
2018-07-23T12:45:50.953Z,36.66
2018-07-23T12:48:19.602Z,36.98
2018-07-23T12:50:48.508Z,37.27
2018-07-23T12:53:17.702Z,36.81
2018-07-23T12:55:46.723Z,37.02
2018-07-23T12:58:15.664Z,37.65
2018-07-23T13:00:44.820Z,38.16
2018-07-23T13:03:14.285Z,38.82
2018-07-23T13:05:43.381Z,39.39
2018-07-23T13:08:12.463Z,40.11
2018-07-23T13:10:42.827Z,40.75
2018-07-23T13:13:20.119Z,40.86
2018-07-23T13:15:57.606Z,41.28
2018-07-23T13:18:26.273Z,41.16
2018-07-23T13:21:01.503Z,39.72
2018-07-23T13:23:31.218Z,38.58
2018-07-23T13:25:59.892Z,37.79
2018-07-23T13:28:30.074Z,37.84
2018-07-23T13:30:58.725Z,38.77
2018-07-23T13:33:27.268Z,38.81
2018-07-23T13:35:56.270Z,38.26
2018-07-23T13:38:24.891Z,38.03
2018-07-23T13:40:53.849Z,38.47
2018-07-23T13:43:26.079Z,38.89
2018-07-23T13:45:54.804Z,39.80
2018-07-23T13:48:23.624Z,41.23
2018-07-23T13:53:27.722Z,41.81
2018-07-23T13:55:57.563Z,43.50
2018-07-23T13:58:26.416Z,44.61
2018-07-23T14:00:55.246Z,44.59
2018-07-23T14:03:24.344Z,45.05
2018-07-23T14:05:53.201Z,46.06
2018-07-23T14:08:22.613Z,46.64
2018-07-23T14:10:51.165Z,47.00
2018-07-23T14:13:20.462Z,46.98
2018-07-23T14:16:05.513Z,47.83
2018-07-23T14:18:35.836Z,47.38
2018-07-23T14:21:06.815Z,48.40
2018-07-23T14:23:35.603Z,48.29
2018-07-23T14:26:05.277Z,47.84
2018-07-23T14:28:34.477Z,45.85
2018-07-23T14:31:03.217Z,44.06
2018-07-23T14:33:32.554Z,44.12
2018-07-23T14:36:01.862Z,44.95
2018-07-23T14:38:31.148Z,46.32
2018-07-23T14:41:03.883Z,47.51
2018-07-23T14:43:33.235Z,47.00
2018-07-23T14:46:03.200Z,45.95
2018-07-23T14:48:32.138Z,45.40
2018-07-23T14:51:01.582Z,44.64
2018-07-23T14:53:30.456Z,43.19
2018-07-23T14:55:59.326Z,43.50
2018-07-23T14:58:28.924Z,43.38
2018-07-23T15:00:57.524Z,41.17
2018-07-23T15:03:26.618Z,40.37
2018-07-23T15:05:55.714Z,39.58
2018-07-23T15:08:24.723Z,38.60
2018-07-23T15:10:56.727Z,39.18
2018-07-23T15:13:27.827Z,40.68
2018-07-23T15:15:56.458Z,41.92
2018-07-23T15:18:25.141Z,43.09
2018-07-23T15:20:54.960Z,44.02
2018-07-23T15:23:23.598Z,44.34
2018-07-23T15:25:52.470Z,44.73
2018-07-23T15:28:27.483Z,45.22
2018-07-23T15:30:56.251Z,45.47
2018-07-23T15:33:25.361Z,45.39
2018-07-23T15:35:53.964Z,45.53
2018-07-23T15:38:22.948Z,45.56
2018-07-23T15:40:52.188Z,45.21
2018-07-23T15:43:20.937Z,44.67
2018-07-23T15:45:55.854Z,44.47
2018-07-23T15:48:24.834Z,44.28
2018-07-23T15:50:53.588Z,44.05
2018-07-23T15:53:23.209Z,43.65
2018-07-23T15:55:51.900Z,43.16
2018-07-23T15:58:29.088Z,43.01
2018-07-23T16:00:58.080Z,42.50
2018-07-23T16:03:27.113Z,42.10
2018-07-23T16:05:57.290Z,41.68
2018-07-23T16:08:26.380Z,41.39
2018-07-23T16:10:55.830Z,40.96
2018-07-23T16:13:25.501Z,40.49
2018-07-23T16:15:55.464Z,40.37
2018-07-23T16:18:24.113Z,40.08
2018-07-23T16:20:53.289Z,39.90
2018-07-23T16:23:22.018Z,39.56
2018-07-23T16:25:54.281Z,39.49
2018-07-23T16:28:26.250Z,39.36
2018-07-23T16:30:55.547Z,39.09
2018-07-23T16:33:24.114Z,39.01
2018-07-23T16:35:53.228Z,38.46
2018-07-23T16:38:21.873Z,38.18
2018-07-23T16:40:51.507Z,38.06
2018-07-23T16:43:21.209Z,38.01
2018-07-23T16:45:50.323Z,37.79
2018-07-23T16:52:02.991Z,37.61
2018-07-23T16:54:31.736Z,37.52
2018-07-23T16:57:04.304Z,37.60
2018-07-23T16:59:47.559Z,37.66
2018-07-23T17:02:18.639Z,37.69
2018-07-23T17:04:49.236Z,37.70
2018-07-23T17:07:19.344Z,37.68
2018-07-23T17:09:51.796Z,37.66
2018-07-23T17:12:20.526Z,37.49
2018-07-23T17:14:49.289Z,37.38
2018-07-23T17:17:22.548Z,37.35
2018-07-23T17:19:51.207Z,37.27
2018-07-23T17:22:19.966Z,37.26
2018-07-23T17:24:49.934Z,37.20
2018-07-23T17:27:19.306Z,37.03
2018-07-23T17:29:48.352Z,36.99
2018-07-23T17:32:17.936Z,36.86
2018-07-23T17:34:57.297Z,36.83
2018-07-23T17:37:38.242Z,36.80
2018-07-23T17:40:07.049Z,36.79
2018-07-23T17:42:37.573Z,36.72
2018-07-23T17:45:06.467Z,36.68
2018-07-23T17:47:35.097Z,36.55
2018-07-23T17:50:06.860Z,36.39
2018-07-23T17:52:36.327Z,36.17
2018-07-23T17:55:05.567Z,35.91
2018-07-23T17:57:34.627Z,35.71
2018-07-23T18:00:07.880Z,35.52
2018-07-23T18:02:36.775Z,35.22
2018-07-23T18:05:05.856Z,35.04
2018-07-23T18:07:43.288Z,34.83
2018-07-23T18:10:15.345Z,34.74
2018-07-23T18:12:44.595Z,34.66
2018-07-23T18:15:25.659Z,34.57
2018-07-23T18:17:55.432Z,34.47
2018-07-23T18:20:24.935Z,34.33
2018-07-23T18:22:54.486Z,34.08
2018-07-23T18:25:24.374Z,33.87
2018-07-23T18:27:53.015Z,33.74
2018-07-23T18:30:22.117Z,33.60
2018-07-23T18:32:52.412Z,33.49
2018-07-23T18:35:21.042Z,33.30
2018-07-23T18:37:49.933Z,33.17
2018-07-23T18:40:20.083Z,33.14
2018-07-23T18:42:49.375Z,33.07
2018-07-23T18:45:18.363Z,32.94
2018-07-23T18:47:48.075Z,32.88
2018-07-23T18:50:21.082Z,32.82
2018-07-23T18:52:50.236Z,32.70
2018-07-23T18:55:19.248Z,32.57
2018-07-23T18:57:47.960Z,32.45
2018-07-23T19:00:17.130Z,32.35
2018-07-23T19:02:55.637Z,32.26
2018-07-23T19:08:04.956Z,32.02
2018-07-23T19:10:39.762Z,31.94
2018-07-23T19:13:08.511Z,31.83
2018-07-23T19:15:37.817Z,31.76
2018-07-23T19:18:06.729Z,31.68
2018-07-23T19:20:36.250Z,31.49
2018-07-23T19:23:05.200Z,31.39
2018-07-23T19:25:36.268Z,31.35
2018-07-23T19:28:05.604Z,31.25
2018-07-23T19:30:34.288Z,31.19
2018-07-23T19:33:03.607Z,31.10
2018-07-23T19:35:32.248Z,31.03
2018-07-23T19:38:01.291Z,30.98
2018-07-23T19:40:31.109Z,30.92
2018-07-23T19:42:59.690Z,30.86
2018-07-23T19:45:33.546Z,30.84
2018-07-23T19:48:03.017Z,30.83
2018-07-23T19:50:36.913Z,30.81
2018-07-23T19:53:05.813Z,30.72
2018-07-23T19:55:34.563Z,30.64
2018-07-23T19:58:04.041Z,30.56
2018-07-23T20:00:33.035Z,30.47
2018-07-23T20:03:01.753Z,30.41
2018-07-23T20:05:30.427Z,30.35
2018-07-23T20:08:17.233Z,30.28
2018-07-23T20:10:46.409Z,30.25
2018-07-23T20:13:17.450Z,30.24
2018-07-23T20:18:23.727Z,30.14
2018-07-23T20:20:53.109Z,30.10
2018-07-23T20:23:21.829Z,30.05
2018-07-23T20:25:54.211Z,29.99
2018-07-23T20:28:24.166Z,29.97
2018-07-23T20:30:53.593Z,29.89
2018-07-23T20:33:22.537Z,29.85
2018-07-23T20:35:52.296Z,29.83
2018-07-23T20:38:25.801Z,29.73
2018-07-23T20:40:54.698Z,29.68
2018-07-23T20:46:01.214Z,29.61
2018-07-23T20:48:36.283Z,29.59
2018-07-23T20:51:05.315Z,29.54
2018-07-23T20:53:34.504Z,29.48
2018-07-23T20:56:03.887Z,29.39
2018-07-23T20:58:34.027Z,29.35
2018-07-23T21:01:09.752Z,29.29
2018-07-23T21:03:39.473Z,29.26
2018-07-23T21:06:08.459Z,29.26
2018-07-23T21:08:37.922Z,29.21
2018-07-23T21:11:10.555Z,29.15
2018-07-23T21:13:39.920Z,29.13
2018-07-23T21:16:08.938Z,29.10
2018-07-23T21:18:40.204Z,29.11
2018-07-23T21:21:09.066Z,29.09
2018-07-23T21:23:37.766Z,29.06
2018-07-23T21:26:06.767Z,29.05
2018-07-23T21:28:36.327Z,29.02
2018-07-23T21:31:13.088Z,28.94
2018-07-23T21:34:03.084Z,28.91
2018-07-23T21:36:31.786Z,28.84
2018-07-23T21:39:00.661Z,28.79
2018-07-23T21:41:29.268Z,28.76
2018-07-23T21:43:57.879Z,28.71
2018-07-23T21:46:26.694Z,28.66
2018-07-23T21:48:55.279Z,28.62
2018-07-23T21:51:23.921Z,28.55
2018-07-23T21:53:52.827Z,28.53
2018-07-23T21:56:22.747Z,28.47
2018-07-23T21:58:51.350Z,28.44
2018-07-23T22:01:25.639Z,28.42
2018-07-23T22:03:54.312Z,28.38
2018-07-23T22:06:24.491Z,28.33
2018-07-23T22:08:55.267Z,28.28
2018-07-23T22:11:23.904Z,28.27
2018-07-23T22:13:52.488Z,28.27
2018-07-23T22:19:00.580Z,28.24
2018-07-23T22:21:36.213Z,28.19
2018-07-23T22:24:05.985Z,28.12
2018-07-23T22:26:40.952Z,28.08
2018-07-23T22:29:09.917Z,28.03
2018-07-23T22:31:44.512Z,27.93
2018-07-23T22:34:13.062Z,27.85
2018-07-23T22:36:41.678Z,27.78
2018-07-23T22:39:11.609Z,27.74
2018-07-23T22:41:41.565Z,27.74
2018-07-23T22:44:10.194Z,27.73
2018-07-23T22:46:38.905Z,27.72
2018-07-23T22:49:08.314Z,27.70
2018-07-23T22:51:36.835Z,27.69
2018-07-23T22:54:06.162Z,27.63
2018-07-23T22:56:37.653Z,27.57
2018-07-23T22:59:06.133Z,27.55
2018-07-23T23:01:34.683Z,27.53
2018-07-23T23:04:06.915Z,27.50
2018-07-23T23:06:35.862Z,27.42
2018-07-23T23:09:06.567Z,27.35
2018-07-23T23:11:35.054Z,27.32
2018-07-23T23:14:06.013Z,27.28
2018-07-23T23:16:34.992Z,27.25
2018-07-23T23:19:07.108Z,27.19
2018-07-23T23:21:35.682Z,27.10
2018-07-23T23:24:06.380Z,27.11
2018-07-23T23:26:35.039Z,27.09
2018-07-23T23:29:03.770Z,27.04
2018-07-23T23:31:32.622Z,27.00
2018-07-23T23:34:01.194Z,26.96
2018-07-23T23:36:29.750Z,26.93
2018-07-23T23:38:58.716Z,26.88
2018-07-23T23:41:27.214Z,26.83
2018-07-23T23:46:35.309Z,26.79
2018-07-23T23:49:04.007Z,26.76
2018-07-23T23:51:32.637Z,26.74
2018-07-23T23:54:06.643Z,26.72
2018-07-23T23:56:35.248Z,26.67
2018-07-23T23:59:06.994Z,26.63
